Newburg, Pennsylvania
Current Conditions -  °F | °C
As of 3:53 PM on Thursday 27 Nov 2014 (Local Time) from KRYT Reporting Station
Light Snow Light Snow  
Wind Chill: 32°   Ceiling: 3400
Heat Index: 36°   Visibility: 6mi
Dew Point: 29°   Wind: 5mph
Humidity: 76%   Direction: NA
Pressure: 30.03"   Gusts: NA
Location:  40.14°N, 77.55°W
Report Text: KRYT 272053Z AUTO VRB04KT 6SM -SN FEW022 BKN034 OVC065 02/M02 A3003 RMK AO2 SNB44 SLP183 P0000 60000 T00221017 53010 $
Loading
Personal Weather Stations






























Interactive Weather Map New forecast layout! Learn more

10-Day Weather Forecast

Advertisements
Track Severe Weather on mobile